createdAt,value
2023-03-13T00:01:14.426Z,100158.38
2023-03-13T00:03:41.767Z,100157.75
2023-03-13T00:06:09.337Z,100147.34
2023-03-13T00:08:38.444Z,100134.06
2023-03-13T00:11:08.850Z,100120.97
2023-03-13T00:13:37.129Z,100128.31
2023-03-13T00:16:08.917Z,100121.34
2023-03-13T00:18:37.326Z,100112.38
2023-03-13T00:21:06.848Z,100102.75
2023-03-13T00:23:37.687Z,100100.94
2023-03-13T00:26:10.028Z,100089.47
2023-03-13T00:28:39.583Z,100089.72
2023-03-13T00:31:10.171Z,100080.09
2023-03-13T00:33:38.893Z,100079.47
2023-03-13T00:36:08.213Z,100066.19
2023-03-13T00:38:35.892Z,100069.88
2023-03-13T00:41:05.210Z,100069.88
2023-03-13T00:43:33.147Z,100065.72
2023-03-13T00:46:00.151Z,100065.94
2023-03-13T00:48:28.553Z,100047.75
2023-03-13T00:50:58.433Z,100041.63
2023-03-13T00:53:25.476Z,100038.97
2023-03-13T00:55:57.811Z,100040.78
2023-03-13T00:58:26.318Z,100038.34
2023-03-13T01:00:55.324Z,100015.69
2023-03-13T01:03:27.792Z,100010.38
2023-03-13T01:06:01.605Z,100001.38
2023-03-13T01:08:30.042Z,99999.75
2023-03-13T01:11:01.185Z,99992.59
2023-03-13T01:13:32.343Z,99978.31
2023-03-13T01:16:08.917Z,99986.28
2023-03-13T01:18:37.438Z,99974.22
2023-03-13T01:21:53.872Z,99973.38
2023-03-13T01:24:23.200Z,99957.47
2023-03-13T01:26:50.092Z,99950.50
2023-03-13T01:29:17.398Z,99940.72
2023-03-13T01:31:44.841Z,99926.63
2023-03-13T01:34:12.205Z,99924.78
2023-03-13T01:36:40.018Z,99918.66
2023-03-13T01:39:07.372Z,99914.34
2023-03-13T01:41:38.836Z,99898.22
2023-03-13T01:44:21.447Z,99897.22
2023-03-13T01:46:50.075Z,99892.72
2023-03-13T01:49:21.742Z,99886.41
2023-03-13T01:51:54.084Z,99882.72
2023-03-13T01:54:25.778Z,99872.09
2023-03-13T01:56:58.839Z,99868.41
2023-03-13T01:59:28.668Z,99859.41
2023-03-13T02:02:01.737Z,99857.38
2023-03-13T02:04:33.985Z,99848.41
2023-03-13T02:07:11.214Z,99838.41
2023-03-13T02:09:42.569Z,99839.22
2023-03-13T02:12:18.858Z,99830.19
2023-03-13T02:14:58.541Z,99831.66
2023-03-13T02:17:30.417Z,99821.66
2023-03-13T02:19:57.697Z,99816.34
2023-03-13T02:22:31.704Z,99814.28
2023-03-13T02:25:08.045Z,99809.59
2023-03-13T02:27:39.920Z,99796.13
2023-03-13T02:31:24.089Z,99786.91
2023-03-13T02:33:54.712Z,99778.97
2023-03-13T02:36:26.459Z,99778.53
2023-03-13T02:39:02.613Z,99765.84
2023-03-13T02:41:34.090Z,99757.69
2023-03-13T02:44:03.717Z,99745.81
2023-03-13T02:46:33.233Z,99738.44
2023-03-13T02:49:22.014Z,99729.06
2023-03-13T02:51:56.486Z,99724.31
2023-03-13T02:54:28.658Z,99737.19
2023-03-13T02:56:59.245Z,99734.91
2023-03-13T02:59:35.152Z,99731.03
2023-03-13T03:02:06.723Z,99729.81
2023-03-13T03:04:35.005Z,99728.56
2023-03-13T03:07:07.165Z,99721.19
2023-03-13T03:09:40.142Z,99727.13
2023-03-13T03:12:19.326Z,99719.53
2023-03-13T03:14:50.944Z,99725.44
2023-03-13T03:17:22.095Z,99735.63
2023-03-13T03:19:50.534Z,99735.03
2023-03-13T03:22:40.981Z,99724.19
2023-03-13T03:25:24.258Z,99732.34
2023-03-13T03:27:57.485Z,99733.75
2023-03-13T03:30:38.114Z,99723.69
2023-03-13T03:33:09.341Z,99715.31
2023-03-13T03:35:38.704Z,99720.19
2023-03-13T03:39:08.662Z,99716.09
2023-03-13T03:41:37.626Z,99712.16
2023-03-13T03:44:09.638Z,99710.94
2023-03-13T03:46:42.216Z,99713.19
2023-03-13T03:49:12.189Z,99707.41
2023-03-13T03:51:39.469Z,99710.69
2023-03-13T03:54:06.435Z,99703.31
2023-03-13T03:56:33.571Z,99696.50
2023-03-13T03:59:06.958Z,99693.44
2023-03-13T04:01:46.723Z,99698.31
2023-03-13T04:04:35.922Z,99700.53
2023-03-13T04:07:04.066Z,99696.84
2023-03-13T04:09:32.210Z,99694.56
2023-03-13T04:12:01.403Z,99689.84
2023-03-13T04:14:36.738Z,99686.75
2023-03-13T04:17:09.522Z,99681.00
2023-03-13T04:19:46.431Z,99684.25
2023-03-13T04:22:13.575Z,99677.66
2023-03-13T04:24:40.618Z,99675.63
2023-03-13T04:27:28.512Z,99680.50
2023-03-13T04:30:05.264Z,99666.75
2023-03-13T04:32:37.649Z,99667.56
2023-03-13T04:35:09.184Z,99675.94
2023-03-13T04:37:38.805Z,99662.41
2023-03-13T04:40:14.512Z,99661.97
2023-03-13T04:42:42.030Z,99658.88
2023-03-13T04:45:19.983Z,99646.13
2023-03-13T04:47:53.917Z,99646.75
2023-03-13T04:50:24.494Z,99636.69
2023-03-13T04:52:55.888Z,99634.44
2023-03-13T04:55:32.517Z,99619.88
2023-03-13T04:58:09.230Z,99605.31
2023-03-13T05:01:19.202Z,99603.22
2023-03-13T05:03:54.472Z,99600.34
2023-03-13T05:06:24.002Z,99606.25
2023-03-13T05:09:04.643Z,99603.13
2023-03-13T05:11:34.535Z,99602.31
2023-03-13T05:14:04.562Z,99594.13
2023-03-13T05:16:34.573Z,99600.84
2023-03-13T05:19:05.894Z,99600.66
2023-03-13T05:21:33.010Z,99594.03
2023-03-13T05:24:17.928Z,99592.56
2023-03-13T05:26:45.196Z,99587.00
2023-03-13T05:29:26.434Z,99598.25
2023-03-13T05:32:06.646Z,99592.69
2023-03-13T05:34:55.414Z,99589.81
2023-03-13T05:37:32.216Z,99601.84
2023-03-13T05:40:07.784Z,99587.50
2023-03-13T05:42:34.598Z,99594.25
2023-03-13T05:45:13.177Z,99595.66
2023-03-13T05:47:43.495Z,99602.38
2023-03-13T05:50:17.931Z,99599.50
2023-03-13T05:52:51.243Z,99597.63
2023-03-13T05:55:19.240Z,99598.47
2023-03-13T05:57:49.148Z,99598.81
2023-03-13T06:00:20.462Z,99594.06
2023-03-13T06:02:49.636Z,99593.84
2023-03-13T06:05:18.107Z,99599.19
2023-03-13T06:07:45.150Z,99597.91
2023-03-13T06:10:18.492Z,99589.47
2023-03-13T06:12:45.576Z,99595.59
2023-03-13T06:15:12.513Z,99595.16
2023-03-13T06:17:41.727Z,99591.22
2023-03-13T06:20:10.125Z,99586.72
2023-03-13T06:22:38.735Z,99589.97
2023-03-13T06:25:10.250Z,99596.94
2023-03-13T06:27:38.216Z,99585.22
2023-03-13T06:30:05.864Z,99573.28
2023-03-13T06:32:38.532Z,99574.91
2023-03-13T06:35:08.370Z,99565.88
2023-03-13T06:37:38.025Z,99571.56
2023-03-13T06:40:08.959Z,99567.84
2023-03-13T06:42:37.403Z,99568.66
2023-03-13T06:45:06.099Z,99570.06
2023-03-13T06:47:34.168Z,99557.56
2023-03-13T06:50:01.151Z,99554.91
2023-03-13T06:52:41.253Z,99558.94
2023-03-13T06:55:13.493Z,99550.50
2023-03-13T06:57:42.377Z,99546.81
2023-03-13T07:00:12.249Z,99549.25
2023-03-13T07:02:38.991Z,99544.72
2023-03-13T07:05:07.925Z,99550.84
2023-03-13T07:07:35.564Z,99553.28
2023-03-13T07:10:05.442Z,99555.50
2023-03-13T07:12:34.713Z,99554.47
2023-03-13T07:15:03.638Z,99551.31
2023-03-13T07:17:30.650Z,99557.47
2023-03-13T07:19:59.356Z,99550.06
2023-03-13T07:22:26.162Z,99546.38
2023-03-13T07:24:54.146Z,99537.06
2023-03-13T07:27:21.401Z,99541.16
2023-03-13T07:29:50.474Z,99542.78
2023-03-13T07:32:17.870Z,99552.19
2023-03-13T07:34:44.809Z,99537.53
2023-03-13T07:37:12.266Z,99554.13
2023-03-13T07:39:39.242Z,99563.53
2023-03-13T07:42:09.153Z,99546.25
2023-03-13T07:44:41.695Z,99544.41
2023-03-13T07:47:10.358Z,99546.63
2023-03-13T07:49:42.431Z,99548.00
2023-03-13T07:52:09.253Z,99535.25
2023-03-13T07:54:37.216Z,99547.31
2023-03-13T07:57:04.597Z,99554.03
2023-03-13T07:59:32.093Z,99544.16
2023-03-13T08:02:00.035Z,99568.75
2023-03-13T08:04:28.638Z,99553.38
2023-03-13T08:06:55.505Z,99548.84
2023-03-13T08:09:22.398Z,99549.41
2023-03-13T08:11:51.920Z,99556.84
2023-03-13T08:14:19.252Z,99568.09
2023-03-13T08:16:48.891Z,99562.75
2023-03-13T08:19:15.887Z,99572.63
2023-03-13T08:21:46.609Z,99558.22
2023-03-13T08:24:13.377Z,99561.72
2023-03-13T08:26:49.396Z,99551.63
2023-03-13T08:29:17.314Z,99554.06
2023-03-13T08:31:52.802Z,99541.88
2023-03-13T08:34:20.226Z,99539.56
2023-03-13T08:36:59.211Z,99547.09
2023-03-13T08:39:26.375Z,99546.06
2023-03-13T08:41:56.296Z,99537.81
2023-03-13T08:44:23.065Z,99545.59
2023-03-13T08:46:54.349Z,99545.34
2023-03-13T08:49:21.216Z,99554.75
2023-03-13T08:51:49.442Z,99549.41
2023-03-13T08:54:19.188Z,99556.16
2023-03-13T08:56:47.135Z,99545.78
2023-03-13T08:59:15.704Z,99538.16
2023-03-13T09:01:44.139Z,99549.16
2023-03-13T09:04:12.718Z,99556.72
2023-03-13T09:06:41.393Z,99543.69
2023-03-13T09:09:11.210Z,99533.59
2023-03-13T09:11:39.412Z,99536.63
2023-03-13T09:14:08.365Z,99539.84
2023-03-13T09:16:36.944Z,99541.81
2023-03-13T09:19:04.441Z,99531.69
2023-03-13T09:21:33.297Z,99519.72
2023-03-13T09:24:05.225Z,99515.53
2023-03-13T09:26:34.807Z,99504.38
2023-03-13T09:29:01.612Z,99499.84
2023-03-13T09:31:30.149Z,99492.16
2023-03-13T09:33:57.665Z,99506.91
2023-03-13T09:36:25.592Z,99499.47
2023-03-13T09:38:53.929Z,99495.28
2023-03-13T09:41:25.989Z,99489.47
2023-03-13T09:44:02.743Z,99493.25
2023-03-13T09:46:36.921Z,99486.41
2023-03-13T09:49:08.779Z,99483.25
2023-03-13T09:51:38.567Z,99488.13
2023-03-13T09:54:09.624Z,99481.47
2023-03-13T09:56:43.108Z,99482.84
2023-03-13T09:59:19.597Z,99459.38
2023-03-13T10:01:50.659Z,99458.34
2023-03-13T10:04:32.960Z,99473.28
2023-03-13T10:07:00.233Z,99458.06
2023-03-13T10:09:30.842Z,99464.00
2023-03-13T10:12:05.606Z,99460.25
2023-03-13T10:14:39.804Z,99446.66
2023-03-13T10:17:13.767Z,99457.91
2023-03-13T10:19:44.110Z,99453.72
2023-03-13T10:22:16.319Z,99454.84
2023-03-13T10:24:50.876Z,99441.03
2023-03-13T10:27:18.119Z,99450.16
2023-03-13T10:29:46.475Z,99439.00
2023-03-13T10:32:15.736Z,99432.91
2023-03-13T10:34:51.438Z,99431.63
2023-03-13T10:37:22.521Z,99435.69
2023-03-13T10:39:49.723Z,99426.91
2023-03-13T10:42:26.754Z,99449.44
2023-03-13T10:45:00.263Z,99432.91
2023-03-13T10:47:27.896Z,99440.41
2023-03-13T10:49:57.828Z,99420.41
2023-03-13T10:52:34.169Z,99427.69
2023-03-13T10:55:08.052Z,99416.50
2023-03-13T10:57:36.971Z,99425.91
2023-03-13T11:00:28.840Z,99400.53
2023-03-13T11:02:56.023Z,99410.75
2023-03-13T11:05:55.358Z,99401.97
2023-03-13T11:08:24.825Z,99408.19
2023-03-13T11:10:55.914Z,99390.84
2023-03-13T11:13:43.018Z,99398.91
2023-03-13T11:16:28.833Z,99399.53
2023-03-13T11:19:19.811Z,99384.63
2023-03-13T11:21:57.473Z,99376.63
2023-03-13T11:24:32.517Z,99371.59
2023-03-13T11:27:14.540Z,99372.72
2023-03-13T11:29:49.869Z,99366.34
2023-03-13T11:32:26.606Z,99359.69
2023-03-13T11:35:00.462Z,99358.13
2023-03-13T11:37:31.347Z,99352.03
2023-03-13T11:40:08.441Z,99353.38
2023-03-13T11:42:59.777Z,99347.31
2023-03-13T11:45:44.381Z,99338.81
2023-03-13T11:48:22.802Z,99340.19
2023-03-13T11:50:55.830Z,99344.28
2023-03-13T11:53:36.417Z,99320.75
2023-03-13T11:56:10.693Z,99342.00
2023-03-13T11:58:55.842Z,99318.47
2023-03-13T12:01:26.486Z,99325.78
2023-03-13T12:04:03.275Z,99337.34
2023-03-13T12:06:32.966Z,99314.59
2023-03-13T12:09:06.631Z,99331.81
2023-03-13T12:11:43.998Z,99315.19
2023-03-13T12:14:17.386Z,99303.44
2023-03-13T12:16:51.533Z,99294.91
2023-03-13T12:19:31.411Z,99292.25
2023-03-13T12:22:12.808Z,99296.03
2023-03-13T12:24:47.670Z,99313.75
2023-03-13T12:27:23.142Z,99302.25
2023-03-13T12:29:59.194Z,99272.25
2023-03-13T12:32:35.095Z,99268.75
2023-03-13T12:35:13.082Z,99268.50
2023-03-13T12:37:46.450Z,99273.66
2023-03-13T12:40:23.845Z,99269.13
2023-03-13T12:43:00.471Z,99269.13
2023-03-13T12:45:29.715Z,99281.75
2023-03-13T12:48:20.809Z,99269.97
2023-03-13T12:51:07.264Z,99253.88
2023-03-13T12:54:04.837Z,99269.44
2023-03-13T12:56:53.784Z,99253.59
2023-03-13T12:59:25.232Z,99258.44
2023-03-13T13:01:54.039Z,99247.44
2023-03-13T13:04:27.307Z,99244.47
2023-03-13T13:07:02.756Z,99234.56
2023-03-13T13:09:36.396Z,99239.41
2023-03-13T13:12:20.020Z,99230.53
2023-03-13T13:15:07.879Z,99230.53
2023-03-13T13:17:59.292Z,99209.31
2023-03-13T13:20:38.021Z,99216.31
2023-03-13T13:23:39.478Z,99212.53
2023-03-13T13:26:47.889Z,99216.84
2023-03-13T13:29:54.185Z,99210.41
2023-03-13T13:32:36.935Z,99202.88
2023-03-13T13:35:07.123Z,99207.16
2023-03-13T13:37:35.665Z,99201.25
2023-03-13T13:40:28.411Z,99208.50
2023-03-13T13:42:56.744Z,99213.88
2023-03-13T13:45:38.514Z,99213.34
2023-03-13T13:48:25.598Z,99203.66
2023-03-13T13:51:24.370Z,99205.00
2023-03-13T13:54:32.457Z,99198.03
2023-03-13T13:57:02.613Z,99201.28
2023-03-13T13:59:51.124Z,99200.97
2023-03-13T14:02:26.350Z,99193.75
2023-03-13T14:05:02.354Z,99201.25
2023-03-13T14:07:51.180Z,99183.25
2023-03-13T14:10:33.927Z,99155.84
2023-03-13T14:13:14.896Z,99168.47
2023-03-13T14:15:43.899Z,99162.03
2023-03-13T14:18:16.095Z,99149.69
2023-03-13T14:20:54.772Z,99157.75
2023-03-13T14:23:42.238Z,99129.81
2023-03-13T14:26:12.862Z,99145.94
2023-03-13T14:28:44.545Z,99149.69
2023-03-13T14:31:26.530Z,99141.63
2023-03-13T14:33:58.920Z,99152.91
2023-03-13T14:36:27.189Z,99139.75
2023-03-13T14:38:56.592Z,99132.50
2023-03-13T14:41:32.715Z,99130.63
2023-03-13T14:44:12.223Z,99130.63
2023-03-13T14:46:42.297Z,99136.00
2023-03-13T14:49:20.817Z,99136.00
2023-03-13T14:51:57.990Z,99138.94
2023-03-13T14:54:31.014Z,99136.25
2023-03-13T14:57:12.179Z,99120.41
2023-03-13T14:59:41.943Z,99123.38
2023-03-13T15:02:18.292Z,99113.72
2023-03-13T15:04:50.410Z,99116.91
2023-03-13T15:07:18.315Z,99109.66
2023-03-13T15:09:47.885Z,99115.59
2023-03-13T15:12:16.793Z,99106.47
2023-03-13T15:14:46.518Z,99122.56
2023-03-13T15:17:18.881Z,99103.78
2023-03-13T15:19:49.817Z,99100.28
2023-03-13T15:22:17.941Z,99098.41
2023-03-13T15:24:59.626Z,99105.09
2023-03-13T15:27:31.627Z,99101.34
2023-03-13T15:30:00.981Z,99103.22
2023-03-13T15:32:29.725Z,99100.53
2023-03-13T15:34:58.696Z,99101.63
2023-03-13T15:37:26.061Z,99093.84
2023-03-13T15:39:53.602Z,99086.31
2023-03-13T15:42:20.441Z,99096.53
2023-03-13T15:44:47.201Z,99084.16
2023-03-13T15:47:19.288Z,99078.78
2023-03-13T15:49:46.246Z,99078.00
2023-03-13T15:52:18.777Z,99062.19
2023-03-13T15:54:45.723Z,99051.69
2023-03-13T15:57:14.484Z,99045.53
2023-03-13T15:59:41.640Z,99046.59
2023-03-13T16:02:14.406Z,99040.69
2023-03-13T16:04:42.722Z,99034.81
2023-03-13T16:07:11.350Z,99027.81
2023-03-13T16:09:38.109Z,99032.66
2023-03-13T16:12:19.536Z,99016.28
2023-03-13T16:14:46.268Z,99010.63
2023-03-13T16:17:15.533Z,98996.16
2023-03-13T16:19:42.464Z,98998.56
2023-03-13T16:22:09.435Z,98991.88
2023-03-13T16:24:36.232Z,98991.06
2023-03-13T16:27:08.576Z,98992.41
2023-03-13T16:29:36.749Z,98977.63
2023-03-13T16:32:03.588Z,98981.41
2023-03-13T16:34:30.345Z,98984.91
2023-03-13T16:36:57.038Z,98975.50
2023-03-13T16:39:23.715Z,98976.31
2023-03-13T16:41:50.736Z,98984.91
2023-03-13T16:44:17.422Z,98978.44
2023-03-13T16:46:59.185Z,98983.25
2023-03-13T16:49:31.033Z,98980.59
2023-03-13T16:51:57.767Z,98983.00
2023-03-13T16:54:24.466Z,98992.66
2023-03-13T16:56:51.261Z,98988.91
2023-03-13T16:59:19.050Z,98988.63
2023-03-13T17:01:47.252Z,98991.31
2023-03-13T17:04:14.382Z,98987.81
2023-03-13T17:06:42.898Z,98981.34
2023-03-13T17:09:12.219Z,98989.91
2023-03-13T17:11:38.945Z,98993.66
2023-03-13T17:14:06.160Z,99001.41
2023-03-13T17:16:34.801Z,98992.78
2023-03-13T17:19:03.320Z,99008.84
2023-03-13T17:21:32.082Z,99013.38
2023-03-13T17:24:00.490Z,99008.81
2023-03-13T17:26:29.267Z,99012.00
2023-03-13T17:28:57.372Z,98999.13
2023-03-13T17:31:26.640Z,99004.97
2023-03-13T17:33:53.916Z,99004.16
2023-03-13T17:36:23.666Z,99011.88
2023-03-13T17:38:51.809Z,99016.97
2023-03-13T17:41:20.755Z,99009.97
2023-03-13T17:43:47.942Z,99025.19
2023-03-13T17:46:17.810Z,99013.41
2023-03-13T17:48:45.709Z,99010.16
2023-03-13T17:51:21.320Z,99003.47
2023-03-13T17:53:50.452Z,98998.06
2023-03-13T17:56:20.184Z,99003.97
2023-03-13T17:58:54.549Z,99011.69
2023-03-13T18:01:22.187Z,99010.03
2023-03-13T18:03:49.577Z,99010.03
2023-03-13T18:06:22.028Z,99006.78
2023-03-13T18:08:51.899Z,99015.06
2023-03-13T18:11:19.645Z,99004.09
2023-03-13T18:13:47.272Z,98993.88
2023-03-13T18:16:18.446Z,99005.91
2023-03-13T18:18:45.744Z,99006.41
2023-03-13T18:21:12.726Z,99005.34
2023-03-13T18:23:39.470Z,99005.03
2023-03-13T18:26:20.899Z,99002.88
2023-03-13T18:28:47.940Z,98994.53
2023-03-13T18:31:15.517Z,98997.75
2023-03-13T18:33:42.333Z,98991.03
2023-03-13T18:36:17.148Z,98979.78
2023-03-13T18:38:44.907Z,98979.22
2023-03-13T18:41:12.330Z,98992.06
2023-03-13T18:43:40.546Z,98978.13
2023-03-13T18:46:11.787Z,98980.25
2023-03-13T18:48:38.715Z,98970.88
2023-03-13T18:51:05.790Z,98971.94
2023-03-13T18:53:32.506Z,98963.38
2023-03-13T18:56:06.034Z,98962.00
2023-03-13T18:58:32.723Z,98965.75
2023-03-13T19:01:00.881Z,98957.19
2023-03-13T19:03:27.596Z,98953.34
2023-03-13T19:05:54.471Z,98956.31
2023-03-13T19:08:21.184Z,98958.41
2023-03-13T19:10:48.078Z,98950.88
2023-03-13T19:13:15.008Z,98945.25
2023-03-13T19:15:41.766Z,98962.34
2023-03-13T19:18:11.810Z,98955.38
2023-03-13T19:20:38.528Z,98967.13
2023-03-13T19:23:05.683Z,98962.84
2023-03-13T19:25:34.668Z,98942.81
2023-03-13T19:28:01.587Z,98951.06
2023-03-13T19:30:28.388Z,98952.38
2023-03-13T19:32:55.169Z,98970.53
2023-03-13T19:35:23.404Z,98962.78
2023-03-13T19:37:50.744Z,98956.06
2023-03-13T19:40:20.276Z,98963.53
2023-03-13T19:42:47.009Z,98962.16
2023-03-13T19:45:14.110Z,98958.94
2023-03-13T19:47:40.783Z,98967.47
2023-03-13T19:50:16.272Z,98955.09
2023-03-13T19:52:45.522Z,98937.72
2023-03-13T19:55:12.911Z,98936.06
2023-03-13T19:57:39.593Z,98937.09
2023-03-13T20:00:10.545Z,98928.72
2023-03-13T20:02:37.316Z,98929.72
2023-03-13T20:05:04.419Z,98935.25
2023-03-13T20:07:32.531Z,98929.59
2023-03-13T20:10:00.774Z,98932.75
2023-03-13T20:12:27.538Z,98938.59
2023-03-13T20:14:54.411Z,98938.03
2023-03-13T20:17:21.204Z,98952.44
2023-03-13T20:19:48.021Z,98943.06
2023-03-13T20:22:14.887Z,98949.22
2023-03-13T20:24:41.711Z,98942.28
2023-03-13T20:27:09.814Z,98956.66
2023-03-13T20:29:36.601Z,98957.72
2023-03-13T20:32:05.870Z,98948.91
2023-03-13T20:34:33.454Z,98941.69
2023-03-13T20:37:00.256Z,98923.03
2023-03-13T20:39:27.712Z,98923.03
2023-03-13T20:41:56.262Z,98923.03
2023-03-13T20:44:24.853Z,98925.44
2023-03-13T20:46:52.099Z,98921.72
2023-03-13T20:49:18.868Z,98913.16
2023-03-13T20:51:45.684Z,98918.25
2023-03-13T20:54:12.507Z,98924.63
2023-03-13T20:56:40.964Z,98923.81
2023-03-13T20:59:08.097Z,98914.44
2023-03-13T21:01:36.536Z,98925.94
2023-03-13T21:04:04.215Z,98939.50
2023-03-13T21:06:31.045Z,98932.59
2023-03-13T21:08:57.791Z,98929.13
2023-03-13T21:11:24.538Z,98914.97
2023-03-13T21:13:51.620Z,98930.16
2023-03-13T21:16:23.742Z,98926.13
2023-03-13T21:18:52.454Z,98930.66
2023-03-13T21:21:22.528Z,98924.78
2023-03-13T21:23:52.304Z,98934.63
2023-03-13T21:26:19.796Z,98927.13
2023-03-13T21:28:46.714Z,98923.06
2023-03-13T21:31:15.001Z,98911.06
2023-03-13T21:33:42.848Z,98910.00
2023-03-13T21:36:13.231Z,98914.78
2023-03-13T21:38:40.161Z,98907.00
2023-03-13T21:41:08.115Z,98900.88
2023-03-13T21:43:35.289Z,98912.34
2023-03-13T21:46:03.947Z,98905.41
2023-03-13T21:48:30.647Z,98887.78
2023-03-13T21:50:57.850Z,98881.63
2023-03-13T21:53:26.949Z,98878.19
2023-03-13T21:55:53.760Z,98881.63
2023-03-13T21:58:20.518Z,98885.09
2023-03-13T22:00:47.472Z,98871.75
2023-03-13T22:03:24.821Z,98877.91
2023-03-13T22:06:48.308Z,98875.25
2023-03-13T22:09:22.865Z,98856.25
2023-03-13T22:11:49.743Z,98852.19
2023-03-13T22:14:16.857Z,98840.44
2023-03-13T22:16:43.744Z,98849.72
2023-03-13T22:19:13.185Z,98847.56
2023-03-13T22:21:40.067Z,98849.66
2023-03-13T22:24:08.467Z,98856.06
2023-03-13T22:26:37.346Z,98845.06
2023-03-13T22:29:05.042Z,98836.25
2023-03-13T22:31:32.160Z,98829.34
2023-03-13T22:33:59.615Z,98822.63
2023-03-13T22:36:26.425Z,98824.19
2023-03-13T22:38:53.167Z,98828.97
2023-03-13T22:41:20.155Z,98827.59
2023-03-13T22:43:48.495Z,98823.56
2023-03-13T22:46:15.667Z,98821.38
2023-03-13T22:48:42.430Z,98804.81
2023-03-13T22:51:10.732Z,98801.06
2023-03-13T22:53:39.591Z,98812.19
2023-03-13T22:56:10.222Z,98809.53
2023-03-13T22:58:37.830Z,98821.25
2023-03-13T23:01:08.164Z,98826.28
2023-03-13T23:03:35.480Z,98827.56
2023-03-13T23:06:05.440Z,98819.03
2023-03-13T23:08:32.595Z,98820.88
2023-03-13T23:11:01.558Z,98823.78
2023-03-13T23:13:28.631Z,98822.19
2023-03-13T23:15:56.227Z,98830.16
2023-03-13T23:18:26.008Z,98825.06
2023-03-13T23:20:53.587Z,98818.13
2023-03-13T23:23:20.449Z,98813.06
2023-03-13T23:25:47.361Z,98799.75
2023-03-13T23:28:14.291Z,98800.78
2023-03-13T23:30:41.457Z,98791.75
2023-03-13T23:33:08.389Z,98800.53
2023-03-13T23:35:38.086Z,98788.00
2023-03-13T23:38:04.987Z,98785.34
2023-03-13T23:40:32.648Z,98786.97
2023-03-13T23:42:59.435Z,98783.50
2023-03-13T23:45:26.221Z,98788.00
2023-03-13T23:47:53.735Z,98784.28
2023-03-13T23:50:21.237Z,98778.97
2023-03-13T23:52:51.643Z,98767.50
2023-03-13T23:55:18.519Z,98776.31
2023-03-13T23:57:48.564Z,98782.69
